createdAt,value
2018-04-08T00:00:35.376Z,0
2018-04-08T00:01:35.400Z,0
2018-04-08T00:02:35.379Z,0
2018-04-08T00:03:34.880Z,0
2018-04-08T00:04:35.121Z,0
2018-04-08T00:05:35.629Z,0
2018-04-08T00:06:35.624Z,0
2018-04-08T00:07:35.364Z,0
2018-04-08T00:08:35.380Z,0
2018-04-08T00:09:35.109Z,0
2018-04-08T00:10:35.374Z,0
2018-04-08T00:11:35.349Z,0
2018-04-08T00:12:35.359Z,0
2018-04-08T00:13:35.405Z,0
2018-04-08T00:14:35.358Z,0
2018-04-08T00:15:35.376Z,0
2018-04-08T00:16:35.102Z,0
2018-04-08T00:17:35.422Z,0
2018-04-08T00:18:35.329Z,0
2018-04-08T00:19:35.329Z,0
2018-04-08T00:20:35.580Z,0
2018-04-08T00:21:35.323Z,0
2018-04-08T00:22:35.565Z,0
2018-04-08T00:23:35.321Z,0
2018-04-08T00:24:35.317Z,0
2018-04-08T00:25:35.063Z,0
2018-04-08T00:26:35.317Z,0
2018-04-08T00:27:35.343Z,0
2018-04-08T00:28:36.952Z,0
2018-04-08T00:29:35.300Z,0
2018-04-08T00:30:35.297Z,0
2018-04-08T00:31:35.055Z,0
2018-04-08T00:32:35.368Z,0
2018-04-08T00:33:35.291Z,0
2018-04-08T00:34:35.287Z,0
2018-04-08T00:35:35.292Z,0
2018-04-08T00:36:35.041Z,0
2018-04-08T00:37:35.521Z,0
2018-04-08T00:38:35.668Z,0
2018-04-08T00:39:35.270Z,0
2018-04-08T00:40:35.160Z,0
2018-04-08T00:41:35.298Z,0
2018-04-08T00:42:35.509Z,0
2018-04-08T00:43:35.001Z,0
2018-04-08T00:44:35.294Z,0
2018-04-08T00:45:35.053Z,0
2018-04-08T00:46:34.755Z,0
2018-04-08T00:47:35.363Z,0
2018-04-08T00:48:35.227Z,0
2018-04-08T00:49:35.277Z,0
2018-04-08T00:50:35.303Z,0
2018-04-08T00:51:35.004Z,0
2018-04-08T00:52:35.232Z,0
2018-04-08T00:53:34.487Z,0
2018-04-08T00:54:35.355Z,0
2018-04-08T00:55:35.227Z,0
2018-04-08T00:56:35.228Z,0
2018-04-08T00:57:35.206Z,0
2018-04-08T00:58:35.021Z,0
2018-04-08T00:59:40.514Z,0
2018-04-08T01:00:35.230Z,0
2018-04-08T01:01:35.232Z,0
2018-04-08T01:02:35.488Z,0
2018-04-08T01:03:35.244Z,0
2018-04-08T01:04:35.061Z,0
2018-04-08T01:05:35.430Z,0
2018-04-08T01:06:35.428Z,0
2018-04-08T01:07:35.443Z,0
2018-04-08T01:08:35.484Z,0
2018-04-08T01:09:35.773Z,0
2018-04-08T01:10:34.955Z,0
2018-04-08T01:11:34.935Z,0
2018-04-08T01:12:35.178Z,0
2018-04-08T01:13:35.157Z,0
2018-04-08T01:14:35.484Z,0
2018-04-08T01:15:35.153Z,0
2018-04-08T01:16:35.156Z,0
2018-04-08T01:17:35.410Z,0
2018-04-08T01:18:35.139Z,0
2018-04-08T01:19:35.210Z,0
2018-04-08T01:20:34.892Z,0
2018-04-08T01:21:35.393Z,0
2018-04-08T01:22:35.135Z,0
2018-04-08T01:23:35.124Z,0
2018-04-08T01:24:34.883Z,0
2018-04-08T01:25:35.114Z,0
2018-04-08T01:26:35.116Z,0
2018-04-08T01:27:34.864Z,0
2018-04-08T01:28:34.853Z,0
2018-04-08T01:29:37.004Z,0
2018-04-08T01:30:35.102Z,0
2018-04-08T01:31:35.378Z,0
2018-04-08T01:32:35.340Z,0
2018-04-08T01:33:35.332Z,0
2018-04-08T01:34:35.333Z,0
2018-04-08T01:35:35.336Z,0
2018-04-08T01:36:35.091Z,0
2018-04-08T01:37:34.577Z,0
2018-04-08T01:38:35.078Z,0
2018-04-08T01:39:34.817Z,0
2018-04-08T01:40:35.081Z,0
2018-04-08T01:41:34.836Z,0
2018-04-08T01:42:35.074Z,0
2018-04-08T01:43:35.316Z,0
2018-04-08T01:44:34.600Z,0
2018-04-08T01:45:34.825Z,0
2018-04-08T01:46:34.559Z,0
2018-04-08T01:47:34.789Z,0
2018-04-08T01:48:35.315Z,0
2018-04-08T01:49:35.093Z,0
2018-04-08T01:50:35.291Z,0
2018-04-08T01:51:35.035Z,0
2018-04-08T01:52:35.358Z,0
2018-04-08T01:53:35.021Z,0
2018-04-08T01:54:34.512Z,0
2018-04-08T01:55:34.813Z,0
2018-04-08T01:56:35.043Z,0
2018-04-08T01:57:35.019Z,0
2018-04-08T01:58:35.009Z,0
2018-04-08T01:59:35.258Z,0
2018-04-08T02:00:37.397Z,0
2018-04-08T02:01:35.246Z,0
2018-04-08T02:02:34.994Z,0
2018-04-08T02:03:34.735Z,0
2018-04-08T02:04:35.010Z,0
2018-04-08T02:05:35.221Z,0
2018-04-08T02:06:35.223Z,0
2018-04-08T02:07:34.980Z,0
2018-04-08T02:08:35.208Z,0
2018-04-08T02:09:35.206Z,0
2018-04-08T02:10:34.714Z,0
2018-04-08T02:11:34.967Z,0
2018-04-08T02:12:34.701Z,0
2018-04-08T02:13:35.189Z,0
2018-04-08T02:14:34.939Z,0
2018-04-08T02:15:35.241Z,0
2018-04-08T02:16:34.684Z,0
2018-04-08T02:17:35.173Z,0
2018-04-08T02:18:34.934Z,0
2018-04-08T02:19:35.377Z,0
2018-04-08T02:20:34.934Z,0
2018-04-08T02:21:34.921Z,0
2018-04-08T02:22:34.912Z,0
2018-04-08T02:23:34.909Z,0
2018-04-08T02:24:35.390Z,0
2018-04-08T02:25:35.148Z,0
2018-04-08T02:26:34.658Z,0
2018-04-08T02:27:35.131Z,0
2018-04-08T02:28:34.883Z,0
2018-04-08T02:29:34.885Z,0
2018-04-08T02:30:36.406Z,0
2018-04-08T02:31:35.169Z,0
2018-04-08T02:32:34.947Z,0
2018-04-08T02:33:35.129Z,0
2018-04-08T02:34:34.863Z,0
2018-04-08T02:35:35.109Z,0
2018-04-08T02:36:34.879Z,0
2018-04-08T02:37:35.119Z,0
2018-04-08T02:38:34.598Z,0
2018-04-08T02:39:34.348Z,0
2018-04-08T02:40:34.869Z,0
2018-04-08T02:41:34.852Z,0
2018-04-08T02:42:34.883Z,0
2018-04-08T02:43:35.102Z,0
2018-04-08T02:44:34.864Z,0
2018-04-08T02:45:35.136Z,0
2018-04-08T02:46:35.076Z,0
2018-04-08T02:47:34.828Z,0
2018-04-08T02:48:34.827Z,0
2018-04-08T02:49:35.087Z,0
2018-04-08T02:50:34.597Z,0
2018-04-08T02:51:35.051Z,0
2018-04-08T02:52:35.056Z,0
2018-04-08T02:53:35.069Z,0
2018-04-08T02:54:35.060Z,0
2018-04-08T02:55:34.532Z,0
2018-04-08T02:56:34.543Z,0
2018-04-08T02:57:34.774Z,0
2018-04-08T02:58:34.529Z,0
2018-04-08T02:59:34.776Z,0
2018-04-08T03:00:35.324Z,0
2018-04-08T03:01:34.760Z,0
2018-04-08T03:02:35.011Z,0
2018-04-08T03:03:34.769Z,0
2018-04-08T03:04:34.750Z,0
2018-04-08T03:05:34.747Z,0
2018-04-08T03:06:34.760Z,0
2018-04-08T03:07:34.995Z,0
2018-04-08T03:08:34.974Z,0
2018-04-08T03:09:34.767Z,0
2018-04-08T03:10:34.458Z,0
2018-04-08T03:11:34.718Z,0
2018-04-08T03:12:34.960Z,0
2018-04-08T03:13:35.000Z,0
2018-04-08T03:14:34.447Z,0
2018-04-08T03:15:38.644Z,0
2018-04-08T03:16:34.946Z,0
2018-04-08T03:17:34.940Z,0
2018-04-08T03:18:34.679Z,0
2018-04-08T03:19:34.942Z,0
2018-04-08T03:20:34.921Z,0
2018-04-08T03:21:34.921Z,0
2018-04-08T03:22:34.682Z,0
2018-04-08T03:23:34.959Z,0
2018-04-08T03:24:34.583Z,0
2018-04-08T03:25:34.902Z,0
2018-04-08T03:26:34.651Z,0
2018-04-08T03:27:34.406Z,0
2018-04-08T03:28:34.896Z,0
2018-04-08T03:29:34.699Z,0
2018-04-08T03:38:24.682Z,0
2018-04-08T03:39:16.972Z,0
2018-04-08T03:40:18.219Z,0
2018-04-08T03:41:17.225Z,0
2018-04-08T03:42:16.964Z,0
2018-04-08T03:43:17.451Z,0
2018-04-08T03:44:17.440Z,0
2018-04-08T03:45:19.686Z,0
2018-04-08T03:46:17.193Z,0
2018-04-08T03:47:17.186Z,0
2018-04-08T03:48:17.487Z,0
2018-04-08T03:49:17.435Z,0
2018-04-08T03:50:19.296Z,0
2018-04-08T03:51:17.429Z,0
2018-04-08T03:52:17.422Z,0
2018-04-08T03:53:20.078Z,0
2018-04-08T03:54:17.213Z,0
2018-04-08T03:55:18.726Z,0
2018-04-08T03:56:17.166Z,0
2018-04-08T03:57:16.643Z,0
2018-04-08T03:58:17.385Z,0
2018-04-08T03:59:17.386Z,0
2018-04-08T04:00:18.685Z,0
2018-04-08T04:01:17.393Z,0
2018-04-08T04:02:17.377Z,0
2018-04-08T04:03:16.868Z,0
2018-04-08T04:04:17.161Z,0
2018-04-08T04:05:19.062Z,0
2018-04-08T04:06:17.359Z,0
2018-04-08T04:07:16.851Z,0
2018-04-08T04:08:16.859Z,0
2018-04-08T04:09:17.949Z,0
2018-04-08T04:10:19.326Z,0
2018-04-08T04:11:17.088Z,0
2018-04-08T04:12:17.117Z,0
2018-04-08T04:13:17.092Z,0
2018-04-08T04:14:16.888Z,0
2018-04-08T04:15:18.623Z,0
2018-04-08T04:16:17.310Z,0
2018-04-08T04:17:16.808Z,0
2018-04-08T04:18:17.296Z,0
2018-04-08T04:19:16.855Z,0
2018-04-08T04:20:19.244Z,0
2018-04-08T04:21:17.293Z,0
2018-04-08T04:22:17.045Z,0
2018-04-08T04:23:17.032Z,0
2018-04-08T04:24:18.680Z,0
2018-04-08T04:25:18.381Z,0
2018-04-08T04:26:16.767Z,0
2018-04-08T04:27:17.263Z,0
2018-04-08T04:28:17.031Z,0
2018-04-08T04:29:17.070Z,0
2018-04-08T04:30:18.788Z,0
2018-04-08T04:31:17.002Z,0
2018-04-08T04:32:16.994Z,0
2018-04-08T04:33:17.011Z,0
2018-04-08T04:34:16.735Z,0
2018-04-08T04:35:18.324Z,0
2018-04-08T04:36:16.977Z,0
2018-04-08T04:37:16.979Z,0
2018-04-08T04:38:17.228Z,0
2018-04-08T04:39:17.524Z,0
2018-04-08T04:40:18.688Z,0
2018-04-08T04:41:16.713Z,0
2018-04-08T04:42:17.008Z,0
2018-04-08T04:43:17.207Z,5
2018-04-08T04:44:17.011Z,5
2018-04-08T04:45:18.807Z,5
2018-04-08T04:46:16.685Z,5
2018-04-08T04:47:17.184Z,5
2018-04-08T04:48:16.932Z,5
2018-04-08T04:49:17.012Z,5
2018-04-08T04:50:18.861Z,10
2018-04-08T04:51:16.944Z,10
2018-04-08T04:52:16.664Z,10
2018-04-08T04:53:16.909Z,10
2018-04-08T04:54:17.260Z,15
2018-04-08T04:55:17.976Z,15
2018-04-08T04:56:16.632Z,15
2018-04-08T04:57:16.892Z,15
2018-04-08T04:58:16.635Z,15
2018-04-08T04:59:16.867Z,20
2018-04-08T05:00:18.509Z,20
2018-04-08T05:01:16.876Z,20
2018-04-08T05:02:16.903Z,25
2018-04-08T05:03:16.863Z,25
2018-04-08T05:04:16.885Z,25
2018-04-08T05:05:18.643Z,30
2018-04-08T05:06:16.605Z,30
2018-04-08T05:07:16.593Z,35
2018-04-08T05:08:17.089Z,35
2018-04-08T05:09:19.177Z,35
2018-04-08T05:10:18.363Z,35
2018-04-08T05:11:16.578Z,40
2018-04-08T05:12:17.066Z,40
2018-04-08T05:13:17.119Z,45
2018-04-08T05:14:16.570Z,50
2018-04-08T05:15:18.293Z,55
2018-04-08T05:16:16.812Z,60
2018-04-08T05:17:16.554Z,65
2018-04-08T05:18:16.798Z,65
2018-04-08T05:19:17.062Z,70
2018-04-08T05:20:18.197Z,70
2018-04-08T05:21:17.040Z,60
2018-04-08T05:22:16.793Z,80
2018-04-08T05:23:16.617Z,85
2018-04-08T05:24:17.025Z,90
2018-04-08T05:25:19.044Z,95
2018-04-08T05:26:17.029Z,95
2018-04-08T05:27:16.756Z,100
2018-04-08T05:28:16.510Z,105
2018-04-08T05:29:16.526Z,105
2018-04-08T05:30:18.460Z,110
2018-04-08T05:31:16.758Z,110
2018-04-08T05:32:16.754Z,115
2018-04-08T05:33:16.747Z,120
2018-04-08T05:34:17.006Z,120
2018-04-08T05:35:18.884Z,125
2018-04-08T05:36:16.742Z,130
2018-04-08T05:37:17.007Z,135
2018-04-08T05:38:16.734Z,115
2018-04-08T05:39:17.011Z,125
2018-04-08T05:40:18.718Z,140
2018-04-08T05:41:16.743Z,140
2018-04-08T05:42:16.981Z,140
2018-04-08T05:43:16.997Z,140
2018-04-08T05:44:16.724Z,140
2018-04-08T05:45:17.994Z,145
2018-04-08T05:46:16.748Z,145
2018-04-08T05:47:16.730Z,140
2018-04-08T05:48:16.991Z,140
2018-04-08T05:49:16.995Z,130
2018-04-08T05:50:18.759Z,130
2018-04-08T05:51:16.481Z,130
2018-04-08T05:52:16.988Z,130
2018-04-08T05:53:16.746Z,125
2018-04-08T05:54:16.737Z,120
2018-04-08T05:55:18.139Z,110
2018-04-08T05:56:16.737Z,110
2018-04-08T05:57:16.970Z,115
2018-04-08T05:58:16.806Z,115
2018-04-08T05:59:16.477Z,115
2018-04-08T06:00:18.052Z,125
2018-04-08T06:01:16.971Z,125
2018-04-08T06:02:16.714Z,125
2018-04-08T06:03:16.728Z,130
2018-04-08T06:04:16.959Z,130
2018-04-08T06:05:18.096Z,130
2018-04-08T06:06:16.957Z,130
2018-04-08T06:07:16.703Z,130
2018-04-08T06:08:16.950Z,130
2018-04-08T06:09:16.447Z,130
2018-04-08T06:10:20.807Z,130
2018-04-08T06:11:16.940Z,130
2018-04-08T06:12:16.698Z,130
2018-04-08T06:13:16.452Z,130
2018-04-08T06:14:16.456Z,135
2018-04-08T06:15:18.154Z,135
2018-04-08T06:16:16.196Z,135
2018-04-08T06:17:16.878Z,140
2018-04-08T06:18:16.936Z,140
2018-04-08T06:19:16.934Z,140
2018-04-08T06:20:18.404Z,145
2018-04-08T06:21:16.680Z,145
2018-04-08T06:22:16.177Z,150
2018-04-08T06:23:16.433Z,155
2018-04-08T06:24:16.673Z,160
2018-04-08T06:25:17.850Z,170
2018-04-08T06:26:16.715Z,185
2018-04-08T06:27:16.664Z,200
2018-04-08T06:28:16.906Z,220
2018-04-08T06:29:16.160Z,195
2018-04-08T06:30:18.161Z,220
2018-04-08T06:31:16.734Z,225
2018-04-08T06:32:16.420Z,230
2018-04-08T06:33:16.906Z,240
2018-04-08T06:34:16.658Z,240
2018-04-08T06:35:18.159Z,245
2018-04-08T06:36:16.968Z,245
2018-04-08T06:37:16.906Z,250
2018-04-08T06:38:16.721Z,265
2018-04-08T06:39:16.410Z,255
2018-04-08T06:40:18.303Z,255
2018-04-08T06:41:18.866Z,260
2018-04-08T06:42:16.178Z,260
2018-04-08T06:43:16.921Z,260
2018-04-08T06:44:16.709Z,265
2018-04-08T06:45:17.952Z,265
2018-04-08T06:46:16.977Z,265
2018-04-08T06:47:16.930Z,270
2018-04-08T06:48:16.685Z,275
2018-04-08T06:49:16.688Z,275
2018-04-08T06:50:17.786Z,275
2018-04-08T06:51:16.796Z,275
2018-04-08T06:52:16.695Z,280
2018-04-08T06:53:16.949Z,280
2018-04-08T06:54:16.986Z,285
2018-04-08T06:55:18.046Z,285
2018-04-08T06:56:16.573Z,285
2018-04-08T06:57:16.783Z,285
2018-04-08T06:58:16.804Z,290
2018-04-08T06:59:16.979Z,290
2018-04-08T07:00:17.650Z,295
2018-04-08T07:01:16.734Z,310
2018-04-08T07:02:16.983Z,295
2018-04-08T07:03:16.757Z,300
2018-04-08T07:04:17.017Z,300
2018-04-08T07:05:17.932Z,300
2018-04-08T07:06:17.003Z,300
2018-04-08T07:07:17.025Z,305
2018-04-08T07:08:16.783Z,305
2018-04-08T07:09:16.774Z,305
2018-04-08T07:10:18.192Z,300
2018-04-08T07:11:17.768Z,290
2018-04-08T07:12:17.054Z,270
2018-04-08T07:13:17.056Z,265
2018-04-08T07:14:16.817Z,270
2018-04-08T07:15:17.910Z,270
2018-04-08T07:16:16.808Z,260
2018-04-08T07:17:16.586Z,260
2018-04-08T07:18:16.906Z,265
2018-04-08T07:19:17.078Z,275
2018-04-08T07:20:18.531Z,270
2018-04-08T07:21:17.155Z,260
2018-04-08T07:22:17.462Z,250
2018-04-08T07:23:16.848Z,255
2018-04-08T07:24:16.908Z,265
2018-04-08T07:25:18.710Z,260
2018-04-08T07:26:17.931Z,265
2018-04-08T07:27:16.365Z,270
2018-04-08T07:28:16.866Z,295
2018-04-08T07:29:17.130Z,300
2018-04-08T07:30:18.388Z,305
2018-04-08T07:31:17.123Z,310
2018-04-08T07:32:16.876Z,310
2018-04-08T07:33:16.890Z,310
2018-04-08T07:34:16.701Z,310
2018-04-08T07:35:18.444Z,310
2018-04-08T07:36:16.645Z,310
2018-04-08T07:37:17.179Z,310
2018-04-08T07:38:16.675Z,310
2018-04-08T07:39:17.181Z,310
2018-04-08T07:40:18.334Z,310
2018-04-08T07:41:17.187Z,310
2018-04-08T07:42:17.901Z,300
2018-04-08T07:43:16.684Z,310
2018-04-08T07:44:16.782Z,310
2018-04-08T07:45:18.290Z,310
2018-04-08T07:46:16.731Z,305
2018-04-08T07:47:16.723Z,305
2018-04-08T07:48:16.976Z,305
2018-04-08T07:49:16.734Z,300
2018-04-08T07:50:18.395Z,285
2018-04-08T07:51:17.253Z,265
2018-04-08T07:52:17.004Z,245
2018-04-08T07:53:16.489Z,235
2018-04-08T07:54:17.016Z,235
2018-04-08T07:55:18.996Z,235
2018-04-08T07:56:17.265Z,235
2018-04-08T07:57:17.378Z,235
2018-04-08T07:58:17.285Z,235
2018-04-08T07:59:17.158Z,235
2018-04-08T08:00:18.450Z,235
2018-04-08T08:01:17.031Z,250
2018-04-08T08:02:17.336Z,230
2018-04-08T08:03:17.052Z,235
2018-04-08T08:04:17.297Z,240
2018-04-08T08:05:18.839Z,275
2018-04-08T08:06:17.083Z,305
2018-04-08T08:07:17.082Z,300
2018-04-08T08:08:17.146Z,300
2018-04-08T08:09:17.329Z,300
2018-04-08T08:10:18.523Z,295
2018-04-08T08:11:17.260Z,295
2018-04-08T08:12:18.838Z,280
2018-04-08T08:13:17.085Z,280
2018-04-08T08:14:17.328Z,285
2018-04-08T08:15:18.758Z,285
2018-04-08T08:16:16.841Z,290
2018-04-08T08:17:16.972Z,290
2018-04-08T08:18:17.472Z,260
2018-04-08T08:19:17.150Z,255
2018-04-08T08:20:18.804Z,250
2018-04-08T08:21:17.365Z,285
2018-04-08T08:22:17.126Z,285
2018-04-08T08:23:17.380Z,275
2018-04-08T08:24:17.384Z,285
2018-04-08T08:25:18.694Z,285
2018-04-08T08:26:17.160Z,285
2018-04-08T08:27:17.460Z,280
2018-04-08T08:28:17.399Z,280
2018-04-08T08:29:17.154Z,280
2018-04-08T08:30:18.856Z,285
2018-04-08T08:31:17.247Z,285
2018-04-08T08:32:16.936Z,285
2018-04-08T08:33:16.946Z,285
2018-04-08T08:34:17.178Z,285
2018-04-08T08:35:18.711Z,285
2018-04-08T08:36:17.489Z,280
2018-04-08T08:37:16.707Z,275
2018-04-08T08:38:17.270Z,280
2018-04-08T08:39:17.508Z,270
2018-04-08T08:40:18.580Z,270
2018-04-08T08:41:17.105Z,265
2018-04-08T08:42:20.556Z,265
2018-04-08T08:43:17.254Z,270
2018-04-08T08:44:49.177Z,265
2018-04-08T08:45:18.864Z,270
2018-04-08T08:46:17.562Z,265
2018-04-08T08:47:17.267Z,265
2018-04-08T08:48:17.578Z,270
2018-04-08T08:49:17.744Z,270
2018-04-08T08:50:18.206Z,265
2018-04-08T08:51:17.309Z,265
2018-04-08T08:52:17.300Z,265
2018-04-08T08:53:17.087Z,265
2018-04-08T08:54:17.045Z,265
2018-04-08T08:55:18.358Z,265
2018-04-08T08:56:17.313Z,270
2018-04-08T08:57:17.128Z,270
2018-04-08T08:58:17.122Z,270
2018-04-08T08:59:17.313Z,270
2018-04-08T09:00:18.856Z,270
2018-04-08T09:01:16.918Z,270
2018-04-08T09:02:17.570Z,270
2018-04-08T09:03:17.322Z,270
2018-04-08T09:04:17.137Z,270
2018-04-08T09:05:19.048Z,270
2018-04-08T09:06:17.337Z,270
2018-04-08T09:07:17.085Z,270
2018-04-08T09:08:17.341Z,270
2018-04-08T09:09:17.391Z,270
2018-04-08T09:10:18.907Z,270
2018-04-08T09:11:17.357Z,270
2018-04-08T09:12:17.421Z,270
2018-04-08T09:13:20.923Z,270
2018-04-08T09:14:17.360Z,270
2018-04-08T09:15:18.976Z,270
2018-04-08T09:16:17.362Z,270
2018-04-08T09:17:17.368Z,265
2018-04-08T09:18:17.208Z,265
2018-04-08T09:19:17.423Z,265
2018-04-08T09:20:18.517Z,265
2018-04-08T09:21:17.132Z,265
2018-04-08T09:22:17.638Z,265
2018-04-08T09:23:17.483Z,265
2018-04-08T09:24:16.635Z,265
2018-04-08T09:25:18.393Z,265
2018-04-08T09:26:17.390Z,265
2018-04-08T09:27:17.654Z,265
2018-04-08T09:28:17.285Z,260
2018-04-08T09:29:16.934Z,260
2018-04-08T09:30:19.029Z,260
2018-04-08T09:31:16.912Z,260
2018-04-08T09:32:17.182Z,260
2018-04-08T09:33:17.658Z,260
2018-04-08T09:34:17.481Z,260
2018-04-08T09:35:18.001Z,255
2018-04-08T09:36:17.672Z,255
2018-04-08T09:37:16.925Z,255
2018-04-08T09:38:17.708Z,255
2018-04-08T09:39:17.201Z,255
2018-04-08T09:40:19.740Z,255
2018-04-08T09:41:17.432Z,250
2018-04-08T09:42:17.441Z,250
2018-04-08T09:43:21.026Z,250
2018-04-08T09:44:17.189Z,250
2018-04-08T09:45:19.003Z,250
2018-04-08T09:46:17.500Z,250
2018-04-08T09:47:17.701Z,250
2018-04-08T09:48:16.957Z,245
2018-04-08T09:49:17.268Z,245
2018-04-08T09:50:18.589Z,245
2018-04-08T09:51:17.468Z,245
2018-04-08T09:52:17.719Z,245
2018-04-08T09:53:17.284Z,245
2018-04-08T09:54:17.532Z,245
2018-04-08T09:55:18.506Z,245
2018-04-08T09:56:17.736Z,245
2018-04-08T09:57:17.554Z,245
2018-04-08T09:58:17.399Z,245
2018-04-08T09:59:18.553Z,245
2018-04-08T10:00:18.291Z,245
2018-04-08T10:01:17.253Z,245
2018-04-08T10:02:17.509Z,245
2018-04-08T10:03:17.253Z,245
2018-04-08T10:04:17.562Z,245
2018-04-08T10:05:18.302Z,245
2018-04-08T10:06:17.527Z,245
2018-04-08T10:07:17.025Z,245
2018-04-08T10:08:17.271Z,245
2018-04-08T10:09:17.370Z,245
2018-04-08T10:10:18.763Z,245
2018-04-08T10:11:16.773Z,245
2018-04-08T10:12:17.274Z,245
2018-04-08T10:13:17.050Z,245
2018-04-08T10:14:17.445Z,245
2018-04-08T10:15:19.232Z,245
2018-04-08T10:16:17.543Z,245
2018-04-08T10:17:17.893Z,245
2018-04-08T10:18:17.335Z,245
2018-04-08T10:19:17.803Z,245
2018-04-08T10:20:19.017Z,245
2018-04-08T10:21:17.098Z,245
2018-04-08T10:22:17.312Z,240
2018-04-08T10:53:13.072Z,230
2018-04-08T10:54:11.865Z,225
2018-04-08T10:55:13.888Z,225
2018-04-08T10:56:11.357Z,225
2018-04-08T10:57:12.110Z,225
2018-04-08T10:58:12.644Z,225
2018-04-08T10:59:11.863Z,225
2018-04-08T11:00:13.218Z,225
2018-04-08T11:01:12.107Z,225
2018-04-08T11:02:12.108Z,225
2018-04-08T11:03:13.185Z,220
2018-04-08T11:04:12.368Z,220
2018-04-08T11:05:13.055Z,220
2018-04-08T11:06:12.112Z,220
2018-04-08T11:07:12.119Z,220
2018-04-08T11:08:11.921Z,220
2018-04-08T11:09:12.168Z,220
2018-04-08T11:10:13.280Z,220
2018-04-08T11:11:12.139Z,215
2018-04-08T11:12:12.155Z,215
2018-04-08T11:13:11.694Z,215
2018-04-08T11:14:12.415Z,215
2018-04-08T11:15:13.751Z,215
2018-04-08T11:16:11.904Z,215
2018-04-08T11:17:11.648Z,215
2018-04-08T11:18:12.240Z,215
2018-04-08T11:19:11.910Z,215
2018-04-08T11:20:13.683Z,215
2018-04-08T11:21:11.918Z,215
2018-04-08T11:22:12.171Z,215
2018-04-08T11:23:12.274Z,215
2018-04-08T11:24:12.213Z,215
2018-04-08T11:25:12.686Z,215
2018-04-08T11:26:12.188Z,215
2018-04-08T11:27:12.183Z,210
2018-04-08T11:28:12.487Z,210
2018-04-08T11:29:11.704Z,210
2018-04-08T11:30:13.116Z,210
2018-04-08T11:31:11.704Z,210
2018-04-08T11:32:12.460Z,210
2018-04-08T11:33:12.002Z,210
2018-04-08T11:34:12.462Z,210
2018-04-08T11:35:13.460Z,210
2018-04-08T11:36:12.224Z,210
2018-04-08T11:37:12.232Z,210
2018-04-08T11:38:12.368Z,210
2018-04-08T11:39:12.229Z,210
2018-04-08T11:40:14.024Z,210
2018-04-08T11:41:12.467Z,210
2018-04-08T11:42:12.237Z,210
2018-04-08T11:43:12.245Z,210
2018-04-08T11:44:12.013Z,210
2018-04-08T11:45:13.573Z,210
2018-04-08T11:46:12.252Z,210
2018-04-08T11:57:49.434Z,200
2018-04-08T11:57:58.235Z,200
2018-04-08T11:58:58.214Z,200
2018-04-08T11:59:59.045Z,200
2018-04-08T12:00:58.724Z,200
2018-04-08T12:01:59.019Z,200
2018-04-08T12:03:00.107Z,200
2018-04-08T12:03:58.510Z,200
2018-04-08T12:04:59.010Z,200
2018-04-08T12:05:58.753Z,195
2018-04-08T12:06:58.778Z,195
2018-04-08T12:07:58.509Z,195
2018-04-08T12:08:58.508Z,195
2018-04-08T12:09:58.516Z,195
2018-04-08T12:10:58.520Z,195
2018-04-08T12:11:58.790Z,195
2018-04-08T12:12:59.616Z,195
2018-04-08T12:13:58.323Z,200
2018-04-08T12:14:58.281Z,190
2018-04-08T12:15:58.548Z,190
2018-04-08T12:16:59.083Z,190
2018-04-08T12:17:58.868Z,190
2018-04-08T12:18:58.593Z,190
2018-04-08T12:19:59.085Z,190
2018-04-08T12:20:58.813Z,190
2018-04-08T12:21:58.582Z,190
2018-04-08T12:22:58.610Z,190
2018-04-08T12:23:58.846Z,190
2018-04-08T12:24:59.083Z,190
2018-04-08T12:25:58.883Z,190
2018-04-08T12:26:58.605Z,190
2018-04-08T12:28:03.096Z,190
2018-04-08T12:28:58.601Z,195
2018-04-08T12:29:58.883Z,195
2018-04-08T12:30:58.874Z,190
2018-04-08T12:31:58.853Z,190
2018-04-08T12:32:58.103Z,190
2018-04-08T12:33:58.368Z,190
2018-04-08T12:34:58.610Z,190
2018-04-08T12:35:58.612Z,190
2018-04-08T12:36:58.871Z,190
2018-04-08T12:37:59.142Z,190
2018-04-08T12:38:58.880Z,190
2018-04-08T12:39:58.903Z,185
2018-04-08T12:40:58.891Z,185
2018-04-08T12:41:58.682Z,185
2018-04-08T12:42:58.899Z,185
2018-04-08T12:43:58.890Z,185
2018-04-08T12:44:58.663Z,185
2018-04-08T12:45:58.925Z,185
2018-04-08T12:46:59.177Z,185
2018-04-08T12:47:58.666Z,185
2018-04-08T12:48:58.668Z,185
2018-04-08T12:49:58.924Z,185
2018-04-08T12:50:59.170Z,185
2018-04-08T12:51:59.205Z,185
2018-04-08T12:52:58.712Z,185
2018-04-08T12:53:59.341Z,185
2018-04-08T12:54:58.706Z,185
2018-04-08T12:55:58.949Z,185
2018-04-08T12:56:58.713Z,190
2018-04-08T12:57:58.457Z,185
2018-04-08T12:59:00.306Z,185
2018-04-08T12:59:58.966Z,185
2018-04-08T13:00:58.971Z,180
2018-04-08T13:01:58.998Z,180
2018-04-08T13:02:59.226Z,185
2018-04-08T13:03:59.234Z,180
2018-04-08T13:04:59.234Z,180
2018-04-08T13:05:58.989Z,180
2018-04-08T13:06:58.991Z,180
2018-04-08T13:07:58.497Z,180
2018-04-08T13:08:58.755Z,180
2018-04-08T13:09:59.258Z,180
2018-04-08T13:10:58.766Z,180
2018-04-08T13:11:58.827Z,180
2018-04-08T13:12:59.308Z,180
2018-04-08T13:13:59.025Z,180
2018-04-08T13:14:59.290Z,180
2018-04-08T13:15:58.785Z,180
2018-04-08T13:16:59.286Z,180
2018-04-08T13:17:59.048Z,180
2018-04-08T13:18:59.040Z,180
2018-04-08T13:19:59.053Z,180
2018-04-08T13:20:59.313Z,180
2018-04-08T13:21:59.335Z,180
2018-04-08T13:22:58.604Z,180
2018-04-08T13:23:58.814Z,180
2018-04-08T13:24:59.079Z,175
2018-04-08T13:25:58.831Z,175
2018-04-08T13:26:58.329Z,175
2018-04-08T13:27:59.335Z,175
2018-04-08T13:28:58.543Z,175
2018-04-08T13:29:58.860Z,175
2018-04-08T13:30:59.345Z,175
2018-04-08T13:31:59.120Z,175
2018-04-08T13:32:59.377Z,175
2018-04-08T13:33:59.374Z,175
2018-04-08T13:34:58.877Z,175
2018-04-08T13:35:58.692Z,175
2018-04-08T13:36:59.119Z,175
2018-04-08T13:37:58.880Z,175
2018-04-08T13:38:59.125Z,175
2018-04-08T13:39:58.883Z,175
2018-04-08T13:40:59.142Z,175
2018-04-08T13:41:58.891Z,175
2018-04-08T13:42:58.909Z,180
2018-04-08T13:43:59.181Z,180
2018-04-08T13:44:59.163Z,170
2018-04-08T13:45:59.419Z,170
2018-04-08T13:46:59.424Z,170
2018-04-08T13:47:59.183Z,170
2018-04-08T13:48:59.416Z,170
2018-04-08T13:49:59.218Z,170
2018-04-08T13:50:59.457Z,170
2018-04-08T13:51:58.931Z,170
2018-04-08T13:52:59.436Z,170
2018-04-08T13:53:59.501Z,170
2018-04-08T13:54:58.726Z,170
2018-04-08T13:55:59.191Z,170
2018-04-08T13:56:58.952Z,170
2018-04-08T13:57:59.228Z,170
2018-04-08T13:59:03.811Z,170
2018-04-08T13:59:59.213Z,170
2018-04-08T14:00:58.994Z,170
2018-04-08T14:01:59.486Z,170
2018-04-08T14:02:59.262Z,170
2018-04-08T14:03:58.985Z,170
2018-04-08T14:04:59.512Z,170
2018-04-08T14:05:59.255Z,170
2018-04-08T14:06:58.996Z,170
2018-04-08T14:07:59.500Z,165
2018-04-08T14:08:59.259Z,165
2018-04-08T14:09:58.753Z,165
2018-04-08T14:10:59.601Z,165
2018-04-08T14:11:59.275Z,165
2018-04-08T14:12:58.792Z,165
2018-04-08T14:13:59.320Z,165
2018-04-08T14:14:59.571Z,170
2018-04-08T14:15:59.351Z,165
2018-04-08T14:16:58.837Z,170
2018-04-08T14:17:59.319Z,165
2018-04-08T14:18:59.298Z,165
2018-04-08T14:19:59.070Z,165
2018-04-08T14:20:59.323Z,165
2018-04-08T14:21:59.590Z,165
2018-04-08T14:22:59.337Z,165
2018-04-08T14:23:59.584Z,165
2018-04-08T14:24:59.354Z,165
2018-04-08T14:25:59.072Z,165
2018-04-08T14:26:59.330Z,165
2018-04-08T14:27:59.612Z,165
2018-04-08T14:29:01.138Z,165
2018-04-08T14:29:59.362Z,165
2018-04-08T14:30:59.345Z,165
2018-04-08T14:31:59.360Z,165
2018-04-08T14:32:59.108Z,165
2018-04-08T14:33:59.633Z,165
2018-04-08T14:34:59.648Z,165
2018-04-08T14:35:59.144Z,165
2018-04-08T14:36:59.393Z,165
2018-04-08T14:37:59.139Z,165
2018-04-08T14:38:59.151Z,160
2018-04-08T14:39:59.435Z,160
2018-04-08T14:40:59.860Z,160
2018-04-08T14:41:58.931Z,160
2018-04-08T14:42:58.915Z,160
2018-04-08T14:43:59.426Z,160
2018-04-08T14:44:58.939Z,160
2018-04-08T14:45:59.420Z,160
2018-04-08T14:46:59.176Z,160
2018-04-08T14:47:59.196Z,155
2018-04-08T14:48:59.195Z,155
2018-04-08T14:49:59.443Z,160
2018-04-08T14:50:59.440Z,160
2018-04-08T14:51:59.360Z,160
2018-04-08T14:52:59.214Z,160
2018-04-08T14:53:59.479Z,165